Time;durP1;ratioP1;P1;durP2;ratioP2;P2;SDS_P1;SDS_P2;PMS_P1;PMS_P2;Temp;Humidity;BMP_temperature;BMP_pressure;BME280_temperature;BME280_humidity;BME280_pressure;Samples;Min_cycle;Max_cycle;Signal;HPM_P1;HPM_P2
2022/02/08 20:20:25;;;;;;;11.32;3.83;;;;;;;7.67;79.90;101352.47;1085404;54;20142;-79
2022/02/08 20:21:30;;;;;;;8.65;3.78;;;;;;;7.62;79.81;101353.63;1085487;54;20552;-79
2022/02/08 20:22:34;;;;;;;9.52;3.35;;;;;;;7.69;80.12;101350.59;1086914;39;20390;-79
2022/02/08 20:23:37;;;;;;;10.50;3.65;;;;;;;7.73;79.71;101355.63;1086063;54;20090;-78
2022/02/08 20:24:52;;;;;;;15.95;4.30;;;;;;;7.80;79.97;101356.13;1085830;54;20030;-80
2022/02/08 20:25:57;;;;;;;10.85;4.05;;;;;;;7.86;79.34;101346.91;1086219;54;20057;-80
2022/02/08 20:27:28;;;;;;;9.88;4.30;;;;;;;7.81;79.89;101349.84;1086448;54;20030;-79
2022/02/08 21:11:01;;;;;;;13.40;5.20;;;;;;;7.89;78.18;101352.88;1085757;54;20030;-80
2022/02/08 21:12:28;;;;;;;12.30;5.45;;;;;;;7.89;78.03;101338.69;1087880;54;20647;-80
2022/02/08 21:14:52;;;;;;;12.55;5.05;;;;;;;7.94;77.59;101349.94;1086169;54;20038;-78
2022/02/08 21:15:54;;;;;;;11.85;4.68;;;;;;;8.11;77.44;101352.38;1085938;54;20030;-79
2022/02/08 21:16:59;;;;;;;11.65;5.97;;;;;;;8.09;77.34;101345.44;1086562;54;20038;-79
2022/02/08 21:18:02;;;;;;;8.93;4.07;;;;;;;8.11;77.46;101344.41;1086175;54;20027;-79
2022/02/08 21:19:13;;;;;;;11.25;5.20;;;;;;;8.02;77.34;101333.47;1086338;46;20030;-78
2022/02/08 21:20:15;;;;;;;11.73;4.90;;;;;;;8.00;77.52;101351.34;1086342;54;20049;-79
2022/02/08 21:21:33;;;;;;;10.45;4.65;;;;;;;8.04;77.29;101348.41;1085999;54;20057;-78
2022/02/08 21:22:35;;;;;;;11.30;4.28;;;;;;;7.94;77.14;101350.78;1085952;54;20035;-79
2022/02/08 21:59:35;;;;;;;10.95;4.47;;;;;;;7.65;78.92;101316.16;1084157;54;20035;-80
2022/02/08 22:00:43;;;;;;;20.75;4.85;;;;;;;7.64;78.99;101319.81;1086396;54;20102;-78
2022/02/08 22:01:47;;;;;;;13.95;5.07;;;;;;;7.76;78.63;101323.50;1085451;54;20057;-82
2022/02/08 22:04:38;;;;;;;10.80;4.38;;;;;;;7.93;77.45;101325.13;1085693;54;20037;-81
2022/02/08 22:07:35;;;;;;;10.07;3.75;;;;;;;8.07;77.18;101302.06;1085196;54;20050;-79
2022/02/08 22:23:48;;;;;;;7.85;3.88;;;;;;;7.85;78.39;101311.41;1086307;54;20658;-79
2022/02/08 22:39:09;;;;;;;;;;;;;;;;;;;;;
2022/02/08 22:42:32;;;;;;;6.85;3.08;;;;;;;7.57;79.69;101301.63;1083706;54;20071;-78
2022/02/08 22:56:27;;;;;;;5.75;3.20;;;;;;;7.70;79.18;101329.19;1084408;54;20042;-79
2022/02/08 22:57:33;;;;;;;4.93;2.30;;;;;;;7.85;78.71;101324.72;1084218;54;20034;-80
2022/02/08 22:58:52;;;;;;;6.13;2.53;;;;;;;7.77;78.70;101319.91;1084173;54;20145;-77
2022/02/08 23:00:00;;;;;;;7.93;3.10;;;;;;;7.76;78.90;101328.81;1083878;54;20057;-79
2022/02/08 23:01:03;;;;;;;6.22;3.33;;;;;;;7.77;78.65;101335.00;1084643;39;20452;-80
2022/02/08 23:02:11;;;;;;;5.03;2.60;;;;;;;7.71;78.57;101333.56;1084081;54;20039;-80
2022/02/08 23:03:13;;;;;;;5.53;2.42;;;;;;;7.93;78.38;101327.78;1083806;54;20038;-78
2022/02/08 23:04:23;;;;;;;5.53;2.30;;;;;;;8.04;77.82;101332.44;1084409;54;20034;-78
2022/02/08 23:05:25;;;;;;;4.05;1.92;;;;;;;8.16;77.73;101336.09;1084789;39;20493;-79
2022/02/08 23:06:33;;;;;;;5.22;2.30;;;;;;;8.12;77.60;101334.63;1085447;46;20034;-80
2022/02/08 23:07:48;;;;;;;5.40;2.00;;;;;;;7.94;77.64;101336.63;1092943;46;20033;-80
2022/02/08 23:08:50;;;;;;;4.68;2.13;;;;;;;7.86;77.85;101328.25;1086036;54;20034;-79
2022/02/08 23:10:03;;;;;;;4.47;2.15;;;;;;;7.96;77.71;101329.41;1084328;39;20459;-80
2022/02/08 23:11:28;;;;;;;6.57;2.30;;;;;;;7.91;77.76;101323.47;1084380;54;20034;-79
2022/02/08 23:12:52;;;;;;;4.68;2.00;;;;;;;7.83;77.82;101323.13;1084426;54;20034;-78
2022/02/08 23:14:07;;;;;;;4.88;2.30;;;;;;;7.86;78.03;101328.25;1084468;54;20107;-80
2022/02/08 23:15:22;;;;;;;4.60;2.28;;;;;;;7.89;77.68;101328.03;1084466;54;20596;-80
2022/02/08 23:16:38;;;;;;;4.88;2.20;;;;;;;7.78;78.01;101321.59;1084549;54;20038;-80
2022/02/08 23:39:46;;;;;;;4.25;1.98;;;;;;;7.79;77.10;101317.13;1087190;54;20034;-79
2022/02/08 23:40:48;;;;;;;5.55;2.35;;;;;;;7.70;77.48;101320.38;1087030;54;20065;-79
2022/02/08 23:41:52;;;;;;;5.93;2.33;;;;;;;7.73;77.40;101312.19;1086545;39;20345;-79
2022/02/08 23:43:04;;;;;;;6.28;2.20;;;;;;;7.71;77.41;101314.94;1086754;54;20034;-80
2022/02/08 23:44:08;;;;;;;4.60;2.20;;;;;;;7.72;77.71;101315.81;1086392;54;20069;-80
2022/02/08 23:45:13;;;;;;;4.78;2.20;;;;;;;7.66;77.75;101317.03;1086556;54;20628;-80
2022/02/08 23:46:17;;;;;;;7.90;2.08;;;;;;;7.63;78.27;101312.75;1086712;54;20661;-79
2022/02/08 23:47:29;;;;;;;4.57;2.10;;;;;;;7.75;78.26;101315.59;1086746;54;20031;-80
2022/02/08 23:48:36;;;;;;;4.05;1.92;;;;;;;7.64;78.21;101311.81;1087233;54;20037;-80
2022/02/08 23:49:44;;;;;;;4.93;2.20;;;;;;;7.76;77.99;101311.97;1087337;54;20038;-78
2022/02/08 23:50:52;;;;;;;4.38;2.22;;;;;;;7.81;77.92;101309.91;1087215;54;20561;-80
2022/02/08 23:51:56;;;;;;;4.85;2.25;;;;;;;7.75;77.99;101321.78;1087276;54;20045;-79
2022/02/08 23:53:08;;;;;;;8.45;2.40;;;;;;;7.85;77.90;101319.41;1087027;54;20053;-80
2022/02/08 23:54:19;;;;;;;4.13;2.40;;;;;;;7.84;77.52;101319.50;1086970;54;20065;-79
2022/02/08 23:55:34;;;;;;;5.28;2.47;;;;;;;7.84;77.77;101315.00;1086948;54;20038;-80
2022/02/08 23:56:43;;;;;;;5.97;2.38;;;;;;;7.83;77.59;101312.47;1087186;54;20061;-80
2022/02/08 23:57:47;;;;;;;4.25;2.08;;;;;;;7.95;77.47;101306.38;1087093;54;20873;-80
2022/02/08 23:58:50;;;;;;;5.65;2.65;;;;;;;7.86;77.77;101309.63;1087134;54;20034;-80
2022/02/08 23:59:59;;;;;;;4.22;2.33;;;;;;;7.89;77.59;101309.41;1087224;54;20033;-80
